Time;durP1;ratioP1;P1;durP2;ratioP2;P2;SDS_P1;SDS_P2;PMS_P1;PMS_P2;Temp;Humidity;BMP_temperature;BMP_pressure;BME280_temperature;BME280_humidity;BME280_pressure;Samples;Min_cycle;Max_cycle;Signal;HPM_P1;HPM_P2
2021/01/31 00:02:55;;;;;;;7.63;3.20;;;6.80;99.90;;;;;;6241899;28;20047;-87
2021/01/31 00:05:58;;;;;;;6.97;3.20;;;6.90;96.80;;;;;;6242001;28;20021;-88
2021/01/31 00:09:00;;;;;;;5.55;3.10;;;6.70;99.90;;;;;;6242328;28;20066;-87
2021/01/31 00:12:00;;;;;;;4.85;2.90;;;6.70;99.90;;;;;;6242440;28;20463;-88
2021/01/31 00:15:01;;;;;;;5.93;3.28;;;6.70;99.90;;;;;;6240269;28;20039;-89
2021/01/31 00:18:02;;;;;;;7.68;2.80;;;6.90;99.90;;;;;;6247110;28;20032;-88
2021/01/31 00:21:03;;;;;;;6.40;2.70;;;6.80;99.90;;;;;;6262777;28;20056;-87
2021/01/31 00:24:04;;;;;;;6.88;3.55;;;6.70;99.90;;;;;;6246544;28;20058;-89
2021/01/31 00:27:04;;;;;;;6.18;2.50;;;7.00;99.90;;;;;;6246553;28;20033;-87
2021/01/31 00:30:30;;;;;;;10.70;2.90;;;6.90;99.90;;;;;;6246341;28;20202;-87
2021/01/31 00:33:31;;;;;;;7.32;3.88;;;;;;;;;;6263241;28;20025;-87
2021/01/31 00:36:32;;;;;;;7.97;3.53;;;;;;;;;;6260085;28;20029;-87
2021/01/31 00:39:33;;;;;;;10.88;3.78;;;;;;;;;;6263003;28;20056;-88
2021/01/31 00:42:34;;;;;;;6.28;3.38;;;;;;;;;;6262062;28;20052;-88
2021/01/31 00:45:35;;;;;;;9.43;3.58;;;;;;;;;;6262438;28;20033;-87
2021/01/31 00:48:36;;;;;;;6.88;3.17;;;;;;;;;;6279552;28;20029;-86
2021/01/31 00:51:37;;;;;;;6.45;3.28;;;;;;;;;;6262595;28;20052;-87
2021/01/31 00:54:38;;;;;;;6.72;3.40;;;;;;;;;;6261838;28;20390;-89
2021/01/31 00:57:39;;;;;;;6.40;3.70;;;6.50;99.90;;;;;;6262174;28;20058;-87
2021/01/31 01:00:40;;;;;;;6.15;2.90;;;;;;;;;;6258956;28;20024;-87
2021/01/31 01:03:40;;;;;;;10.38;3.72;;;6.70;99.90;;;;;;6262144;28;20152;-87
2021/01/31 01:06:41;;;;;;;8.13;3.30;;;;;;;;;;6245679;28;20028;-87
2021/01/31 01:09:42;;;;;;;5.90;3.42;;;6.70;99.90;;;;;;6261897;28;20122;-88
2021/01/31 01:12:43;;;;;;;4.57;3.05;;;6.60;97.70;;;;;;6245991;28;20021;-88
2021/01/31 01:15:43;;;;;;;8.05;3.38;;;7.40;97.70;;;;;;6245058;28;20036;-87
2021/01/31 01:18:44;;;;;;;4.65;3.22;;;6.60;97.60;;;;;;6245762;28;20486;-88
2021/01/31 01:21:44;;;;;;;6.78;3.03;;;6.60;97.50;;;;;;6236126;28;20041;-88
2021/01/31 01:24:52;;;;;;;4.07;3.20;;;6.50;97.60;;;;;;6243624;28;20457;-87
2021/01/31 01:27:53;;;;;;;5.65;3.28;;;6.50;99.90;;;;;;6240678;28;20485;-88
2021/01/31 01:30:53;;;;;;;4.57;3.28;;;6.70;97.70;;;;;;6244912;28;20382;-87
2021/01/31 01:33:54;;;;;;;7.47;3.33;;;6.50;97.60;;;;;;6253808;28;20048;-87
2021/01/31 01:36:55;;;;;;;11.45;7.97;;;6.90;97.80;;;;;;6244943;28;20028;-89
2021/01/31 01:39:55;;;;;;;62.03;15.20;;;6.50;97.70;;;;;;6278376;28;20028;-87
2021/01/31 01:42:56;;;;;;;63.28;16.05;;;;;;;;;;6244439;28;20410;-89
2021/01/31 01:46:17;;;;;;;231.88;19.73;;;6.50;96.50;;;;;;6261229;28;20036;-88
2021/01/31 01:49:23;;;;;;;73.40;16.05;;;6.50;98.80;;;;;;6260069;28;20098;-87
2021/01/31 01:52:33;;;;;;;98.07;19.17;;;6.40;98.50;;;;;;6244390;28;20029;-87
2021/01/31 01:55:38;;;;;;;162.80;18.80;;;6.40;98.50;;;;;;6244100;28;20032;-89
2021/01/31 01:58:38;;;;;;;110.82;17.48;;;6.30;98.60;;;;;;6244745;28;20024;-88
2021/01/31 02:01:47;;;;;;;42.30;14.77;;;6.10;99.00;;;;;;6244349;28;20493;-89
2021/01/31 02:04:48;;;;;;;63.70;15.82;;;6.20;97.20;;;;;;6236538;28;20036;-87
2021/01/31 02:07:49;;;;;;;98.80;15.48;;;6.20;98.70;;;;;;6244325;28;20036;-87
2021/01/31 02:10:50;;;;;;;33.90;14.48;;;;;;;;;;6243933;28;20417;-87
2021/01/31 02:13:53;;;;;;;50.22;15.13;;;6.10;97.00;;;;;;6260772;28;20060;-89
2021/01/31 02:16:58;;;;;;;80.93;14.95;;;6.00;98.50;;;;;;6253784;28;20417;-88
2021/01/31 02:20:34;;;;;;;48.40;15.30;;;6.00;97.30;;;;;;6244732;28;20036;-89
2021/01/31 02:24:05;;;;;;;103.32;15.07;;;6.00;97.50;;;;;;6264309;28;20383;-87
2021/01/31 02:27:57;;;;;;;45.72;12.93;;;6.20;97.40;;;;;;6271963;28;20024;-87
2021/01/31 02:31:24;;;;;;;132.00;17.73;;;6.50;96.90;;;;;;6222097;28;20071;-87
2021/01/31 02:34:27;;;;;;;34.15;11.80;;;6.00;99.90;;;;;;6230183;28;20094;-87
2021/01/31 02:37:42;;;;;;;91.30;13.30;;;6.20;97.80;;;;;;6260141;28;20043;-87
2021/01/31 02:41:13;;;;;;;105.75;12.80;;;5.40;99.90;;;;;;6244551;28;20115;-89
2021/01/31 02:44:16;;;;;;;34.58;12.15;;;5.70;97.90;;;;;;6251494;28;20136;-87
2021/01/31 02:47:17;;;;;;;111.75;13.55;;;5.60;97.90;;;;;;6243219;28;20115;-87
2021/01/31 02:50:24;;;;;;;43.30;12.45;;;7.50;98.50;;;;;;6243245;28;20129;-88
2021/01/31 02:53:31;;;;;;;25.60;10.05;;;5.50;98.00;;;;;;6243187;28;20495;-89
2021/01/31 02:57:13;;;;;;;44.80;11.57;;;5.40;99.90;;;;;;6260295;28;20081;-88
2021/01/31 03:00:26;;;;;;;64.90;11.52;;;5.40;96.80;;;;;;6155844;28;20166;-87
2021/01/31 03:03:36;;;;;;;87.72;11.90;;;5.50;99.90;;;;;;6177674;28;20042;-87
2021/01/31 03:06:52;;;;;;;88.28;11.73;;;5.30;96.50;;;;;;6244011;28;20028;-87
2021/01/31 03:09:57;;;;;;;105.70;11.32;;;5.30;98.00;;;;;;6243343;28;20040;-89
2021/01/31 03:13:03;;;;;;;32.25;9.90;;;5.10;99.90;;;;;;6259060;28;20025;-88
2021/01/31 03:16:09;;;;;;;114.97;12.13;;;5.40;99.90;;;;;;6243510;28;20055;-88
2021/01/31 03:19:12;;;;;;;110.60;11.25;;;5.30;97.30;;;;;;6259211;28;20150;-88
2021/01/31 03:22:40;;;;;;;52.88;9.38;;;5.00;97.00;;;;;;6258757;28;20122;-88
2021/01/31 03:25:47;;;;;;;77.68;9.95;;;4.80;99.90;;;;;;6254578;28;20037;-88
2021/01/31 03:28:48;;;;;;;126.13;11.68;;;;;;;;;;6237096;28;20036;-88
2021/01/31 03:31:56;;;;;;;119.65;12.15;;;4.80;95.60;;;;;;6259303;28;20047;-88
2021/01/31 03:35:04;;;;;;;132.52;12.48;;;6.10;97.50;;;;;;6242922;28;20112;-87
2021/01/31 03:38:22;;;;;;;29.65;10.23;;;4.60;96.00;;;;;;6243895;28;20565;-88
2021/01/31 03:41:25;;;;;;;99.88;12.95;;;4.60;96.30;;;;;;6244031;28;20117;-87
2021/01/31 03:44:25;;;;;;;97.80;12.40;;;4.90;97.30;;;;;;6238473;28;20052;-88
2021/01/31 03:47:49;;;;;;;44.92;10.15;;;4.60;97.90;;;;;;6235507;28;20060;-89
2021/01/31 03:50:50;;;;;;;26.50;9.20;;;5.30;96.40;;;;;;6258739;28;20041;-88
2021/01/31 03:53:51;;;;;;;60.58;10.60;;;;;;;;;;6239187;28;20123;-89
2021/01/31 03:56:51;;;;;;;70.72;10.63;;;4.50;95.90;;;;;;6250430;28;20021;-88
2021/01/31 03:59:55;;;;;;;22.17;10.93;;;4.50;97.50;;;;;;6258311;28;20433;-88
2021/01/31 04:02:58;;;;;;;21.75;10.32;;;4.90;97.40;;;;;;6231567;28;20060;-89
2021/01/31 04:06:07;;;;;;;35.58;11.00;;;4.40;97.20;;;;;;6231382;28;20028;-88
2021/01/31 04:09:08;;;;;;;33.63;10.52;;;4.40;96.00;;;;;;6223573;28;20028;-88
2021/01/31 04:12:10;;;;;;;23.98;11.00;;;4.50;97.20;;;;;;6216613;28;20033;-88
2021/01/31 04:15:32;;;;;;;42.08;10.35;;;4.40;97.10;;;;;;6240884;28;20519;-90
2021/01/31 04:18:33;;;;;;;58.72;11.10;;;;;;;;;;6212094;28;20085;-87
2021/01/31 04:21:34;;;;;;;89.40;12.30;;;4.50;95.80;;;;;;6242936;28;20045;-89
2021/01/31 04:24:34;;;;;;;47.63;11.13;;;4.40;97.20;;;;;;6220504;28;20029;-87
2021/01/31 04:27:35;;;;;;;43.22;14.55;;;4.90;97.50;;;;;;6221430;28;20066;-88
2021/01/31 04:30:37;;;;;;;74.63;11.68;;;4.30;97.20;;;;;;6231564;28;20078;-90
2021/01/31 04:33:38;;;;;;;93.97;11.80;;;;;;;;;;6208346;28;20040;-87
2021/01/31 04:36:39;;;;;;;93.72;12.23;;;4.30;95.90;;;;;;6243526;28;20029;-88
2021/01/31 04:39:40;;;;;;;19.60;10.23;;;;;;;;;;6227164;28;20031;-88
2021/01/31 04:42:41;;;;;;;53.22;10.98;;;4.20;95.70;;;;;;6256757;28;20227;-89
2021/01/31 04:45:41;;;;;;;48.85;11.13;;;4.20;97.50;;;;;;6241549;28;20037;-88
2021/01/31 04:48:48;;;;;;;16.15;10.07;;;4.30;97.00;;;;;;6242022;28;20028;-88
2021/01/31 04:52:14;;;;;;;57.45;10.68;;;4.10;96.60;;;;;;6258432;28;20032;-90
2021/01/31 04:55:46;;;;;;;32.72;9.43;;;4.30;96.00;;;;;;6274382;28;20043;-90
2021/01/31 04:58:48;;;;;;;27.10;9.02;;;4.00;96.00;;;;;;6274304;28;20116;-88
2021/01/31 05:01:51;;;;;;;19.65;8.82;;;3.60;96.20;;;;;;6245168;28;20090;-88
2021/01/31 05:04:56;;;;;;;22.92;10.23;;;3.90;96.60;;;;;;6245866;28;20036;-89
2021/01/31 05:07:58;;;;;;;12.57;8.73;;;3.80;99.90;;;;;;6245996;28;20024;-88
2021/01/31 05:11:30;;;;;;;16.63;8.93;;;3.70;99.90;;;;;;6245423;28;20032;-88
2021/01/31 05:14:49;;;;;;;14.48;8.93;;;3.90;95.70;;;;;;6260007;28;20033;-89
2021/01/31 05:17:52;;;;;;;20.33;8.95;;;3.90;99.90;;;;;;6279027;28;20428;-88
2021/01/31 05:20:58;;;;;;;24.20;9.00;;;4.20;99.90;;;;;;6245812;28;20028;-91
2021/01/31 05:24:04;;;;;;;43.53;9.55;;;4.10;99.90;;;;;;6246265;28;20036;-89
2021/01/31 05:27:05;;;;;;;17.73;9.27;;;;;;;;;;6246091;28;20036;-90
2021/01/31 05:30:06;;;;;;;47.78;9.95;;;3.90;99.90;;;;;;6262105;28;20031;-90
2021/01/31 05:33:16;;;;;;;62.33;10.07;;;4.00;96.90;;;;;;6241361;28;20036;-89
2021/01/31 05:36:17;;;;;;;16.88;9.13;;;5.80;97.40;;;;;;6262612;28;20091;-89
2021/01/31 05:39:36;;;;;;;11.75;8.55;;;3.90;97.40;;;;;;6245857;28;20078;-89
2021/01/31 05:42:41;;;;;;;12.98;8.48;;;4.20;96.70;;;;;;6245437;28;20067;-90
2021/01/31 05:45:44;;;;;;;10.35;7.80;;;4.00;96.60;;;;;;6246015;28;20064;-89
2021/01/31 05:48:45;;;;;;;;;;;4.00;97.50;;;;;;6246913;28;20116;-89
2021/01/31 05:51:46;;;;;;;17.20;8.20;;;;;;;;;;6262233;28;19915;-88
2021/01/31 05:54:47;;;;;;;13.35;9.02;;;;;;;;;;6261338;28;20021;-90
2021/01/31 05:57:48;;;;;;;9.88;7.82;;;3.90;95.50;;;;;;6262159;28;20087;-88
2021/01/31 06:00:49;;;;;;;12.85;8.95;;;;;;;;;;6245019;28;20025;-90
2021/01/31 06:03:50;;;;;;;14.75;7.82;;;;;;;;;;6261997;28;20378;-88
2021/01/31 06:06:51;;;;;;;9.38;7.60;;;;;;;;;;6261567;28;20028;-89
2021/01/31 06:09:52;;;;;;;9.68;6.55;;;;;;;;;;6261714;28;20077;-90
2021/01/31 06:13:02;;;;;;;8.80;6.65;;;3.80;95.10;;;;;;6261484;28;20024;-88
2021/01/31 06:16:16;;;;;;;8.00;6.38;;;4.20;96.40;;;;;;6245089;28;20060;-89
2021/01/31 06:19:31;;;;;;;8.13;6.32;;;5.20;96.60;;;;;;6245024;28;20035;-89
2021/01/31 06:22:45;;;;;;;8.88;6.75;;;3.80;99.90;;;;;;6261632;28;20037;-89
2021/01/31 06:25:47;;;;;;;7.60;6.05;;;;;;;;;;6246127;28;20060;-90
2021/01/31 06:28:48;;;;;;;8.85;6.40;;;;;;;;;;6261530;28;20085;-90
2021/01/31 06:32:25;;;;;;;9.30;6.60;;;3.60;99.90;;;;;;6261159;28;20024;-90
2021/01/31 06:35:26;;;;;;;7.63;6.00;;;;;;;;;;6163829;28;20085;-90
2021/01/31 06:38:32;;;;;;;6.85;5.55;;;3.40;99.90;;;;;;6260862;28;20028;-91
2021/01/31 06:41:35;;;;;;;7.07;5.95;;;3.50;98.10;;;;;;6261445;28;20115;-89
2021/01/31 06:45:01;;;;;;;13.07;10.18;;;3.50;96.70;;;;;;6276945;28;20062;-89
2021/01/31 06:48:12;;;;;;;8.25;6.28;;;3.50;95.50;;;;;;6242038;28;20127;-89
2021/01/31 06:51:22;;;;;;;7.97;6.50;;;3.50;95.80;;;;;;6244897;28;20036;-90
2021/01/31 06:54:29;;;;;;;7.18;6.10;;;3.50;95.50;;;;;;6245061;28;20025;-89
2021/01/31 06:57:37;;;;;;;7.72;6.18;;;3.60;95.70;;;;;;6270287;28;20052;-89
2021/01/31 07:00:46;;;;;;;6.47;5.57;;;3.50;95.90;;;;;;6260549;28;20523;-90
2021/01/31 07:04:07;;;;;;;7.15;5.68;;;3.40;95.70;;;;;;6259805;28;20036;-89
2021/01/31 07:07:26;;;;;;;5.50;4.88;;;3.50;95.70;;;;;;6262008;28;20466;-89
2021/01/31 07:10:35;;;;;;;6.57;5.22;;;3.70;99.90;;;;;;6260066;28;20087;-90
2021/01/31 07:13:48;;;;;;;6.20;5.15;;;3.50;95.50;;;;;;6276641;28;20024;-87
2021/01/31 07:17:08;;;;;;;4.95;4.32;;;3.50;95.70;;;;;;6260189;28;20377;-88
2021/01/31 07:20:26;;;;;;;6.07;5.35;;;3.30;95.30;;;;;;6261797;28;20024;-87
2021/01/31 07:23:32;;;;;;;6.07;4.88;;;3.70;95.50;;;;;;6243338;28;20049;-88
2021/01/31 07:26:51;;;;;;;6.22;5.45;;;3.50;95.30;;;;;;6243763;28;20032;-85
2021/01/31 07:29:52;;;;;;;5.97;5.15;;;3.70;95.20;;;;;;6244044;28;20035;-87
2021/01/31 07:33:01;;;;;;;5.78;4.78;;;3.80;96.40;;;;;;6276268;28;20040;-89
2021/01/31 07:36:12;;;;;;;4.60;4.07;;;3.50;95.30;;;;;;6276151;28;20036;-89
2021/01/31 07:39:14;;;;;;;5.20;4.38;;;4.10;96.60;;;;;;6258454;28;20387;-90
2021/01/31 07:42:15;;;;;;;5.10;4.50;;;3.60;95.90;;;;;;6242938;28;20079;-90
2021/01/31 07:45:19;;;;;;;5.00;4.20;;;3.60;95.60;;;;;;6227012;28;20049;-88
2021/01/31 07:48:31;;;;;;;6.25;4.93;;;3.70;96.00;;;;;;6241356;28;20470;-84
2021/01/31 07:51:36;;;;;;;6.55;3.90;;;4.90;99.90;;;;;;6274733;28;20096;-82
2021/01/31 07:54:38;;;;;;;4.53;3.65;;;4.90;99.90;;;;;;6275333;28;20056;-82
2021/01/31 07:57:39;;;;;;;3.83;3.35;;;5.40;96.70;;;;;;6241248;28;20028;-80
2021/01/31 08:00:41;;;;;;;6.28;3.67;;;6.30;94.40;;;;;;6270360;28;20381;-81
2021/01/31 08:03:42;;;;;;;9.23;3.35;;;6.90;92.00;;;;;;6257462;28;20115;-88
2021/01/31 08:06:47;;;;;;;4.28;3.88;;;7.40;92.10;;;;;;6260502;28;20147;-89
2021/01/31 08:09:52;;;;;;;4.55;3.90;;;7.10;85.80;;;;;;6242103;28;20026;-88
2021/01/31 08:12:57;;;;;;;4.07;3.65;;;5.80;91.30;;;;;;6242016;28;20025;-88
2021/01/31 08:15:58;;;;;;;4.00;3.60;;;5.00;99.90;;;;;;6259278;28;20068;-88
2021/01/31 08:19:07;;;;;;;3.65;3.35;;;5.30;97.20;;;;;;6243155;28;20035;-88
2021/01/31 08:22:13;;;;;;;4.53;3.60;;;5.20;94.10;;;;;;6275716;28;20043;-88
2021/01/31 08:25:13;;;;;;;4.72;4.30;;;4.60;92.90;;;;;;6242403;28;20032;-87
2021/01/31 08:28:36;;;;;;;4.50;4.00;;;4.50;93.70;;;;;;6274133;28;20661;-89
2021/01/31 08:39:51;;;;;;;5.07;4.38;;;4.20;93.90;;;;;;6245383;28;20112;-89
2021/01/31 08:42:53;;;;;;;5.10;4.28;;;4.20;94.20;;;;;;6197921;28;20057;-91
2021/01/31 08:46:31;;;;;;;9.18;5.75;;;4.10;93.70;;;;;;6199487;28;20091;-91
2021/01/31 08:49:32;;;;;;;7.85;5.22;;;4.80;94.20;;;;;;6211213;28;20042;-87
2021/01/31 08:52:33;;;;;;;6.28;4.95;;;;;;;;;;6228048;28;20049;-88
2021/01/31 08:55:34;;;;;;;6.63;5.63;;;4.10;94.00;;;;;;6210724;28;20079;-89
2021/01/31 08:58:35;;;;;;;7.05;5.35;;;4.00;95.50;;;;;;6194151;28;20400;-89
2021/01/31 09:01:58;;;;;;;10.23;6.05;;;4.20;95.10;;;;;;6212636;28;20557;-89
2021/01/31 09:05:19;;;;;;;9.02;5.30;;;6.60;95.30;;;;;;6253772;28;20048;-88
2021/01/31 09:08:20;;;;;;;9.20;6.57;;;3.90;99.90;;;;;;6264519;28;20040;-88
2021/01/31 09:11:21;;;;;;;8.88;5.82;;;;;;;;;;6249870;28;20040;-89
2021/01/31 09:14:26;;;;;;;8.52;5.85;;;4.10;94.50;;;;;;6264547;28;20062;-90
2021/01/31 09:17:37;;;;;;;7.00;4.93;;;4.50;95.80;;;;;;6247983;28;20032;-90
2021/01/31 09:20:38;;;;;;;5.68;4.78;;;;;;;;;;6263601;28;20032;-90
2021/01/31 09:23:45;;;;;;;6.85;5.10;;;4.10;94.30;;;;;;6264382;28;20367;-88
2021/01/31 09:26:58;;;;;;;6.47;4.85;;;4.00;99.90;;;;;;6248584;28;20092;-91
2021/01/31 09:30:27;;;;;;;6.18;4.80;;;4.20;96.70;;;;;;6262180;28;20075;-91
2021/01/31 09:33:39;;;;;;;5.07;4.55;;;4.90;95.20;;;;;;6249896;28;20029;-93
2021/01/31 09:36:40;;;;;;;4.40;4.00;;;;;;;;;;6258773;28;20595;-88
2021/01/31 09:39:41;;;;;;;8.63;5.30;;;4.20;94.50;;;;;;6261635;28;20028;-89
2021/01/31 09:42:42;;;;;;;9.70;7.20;;;4.20;95.70;;;;;;6246889;28;20060;-89
2021/01/31 09:45:54;;;;;;;5.22;4.55;;;4.20;95.80;;;;;;6262127;28;20028;-90
2021/01/31 09:49:04;;;;;;;10.32;6.20;;;4.20;94.80;;;;;;6239461;28;20458;-91
2021/01/31 09:52:09;;;;;;;9.65;6.57;;;4.50;94.80;;;;;;6279596;28;20123;-88
2021/01/31 09:55:28;;;;;;;6.25;4.80;;;4.40;94.50;;;;;;6244165;28;20093;-87
2021/01/31 09:58:41;;;;;;;6.15;4.90;;;4.70;95.10;;;;;;6278022;28;20041;-92
2021/01/31 10:01:43;;;;;;;5.25;4.22;;;4.60;94.00;;;;;;6247406;28;20055;-89
2021/01/31 10:04:44;;;;;;;8.70;6.47;;;4.60;95.10;;;;;;6244886;28;20028;-88
2021/01/31 10:07:47;;;;;;;6.28;5.32;;;;;;;;;;6236836;28;20032;-89
2021/01/31 10:10:48;;;;;;;6.57;5.25;;;4.60;94.00;;;;;;6260890;28;20032;-92
2021/01/31 10:13:49;;;;;;;6.40;5.70;;;4.60;95.50;;;;;;6244884;28;20016;-90
2021/01/31 10:16:50;;;;;;;6.25;5.30;;;4.60;99.90;;;;;;6245690;28;20020;-90
2021/01/31 10:20:28;;;;;;;7.28;6.07;;;4.80;99.90;;;;;;6243702;28;20107;-90
2021/01/31 10:23:29;;;;;;;22.98;10.55;;;4.80;94.80;;;;;;6271301;28;20465;-90
2021/01/31 10:26:29;;;;;;;7.47;6.47;;;5.30;99.70;;;;;;6244473;28;20086;-90
2021/01/31 10:29:31;;;;;;;9.07;7.80;;;5.00;99.90;;;;;;6244384;28;20033;-88
2021/01/31 10:32:34;;;;;;;7.70;6.43;;;5.10;94.40;;;;;;6243999;28;20062;-87
2021/01/31 10:35:47;;;;;;;6.50;5.78;;;5.20;97.70;;;;;;6278639;28;20034;-92
2021/01/31 10:38:48;;;;;;;5.20;4.70;;;;;;;;;;6261429;28;20036;-91
2021/01/31 10:41:49;;;;;;;6.13;5.20;;;5.20;99.90;;;;;;6263639;28;20075;-86
2021/01/31 10:44:53;;;;;;;7.05;5.75;;;;;;;;;;6245012;28;20476;-92
2021/01/31 10:47:53;;;;;;;6.93;6.20;;;5.40;99.50;;;;;;6262506;28;20373;-89
2021/01/31 10:50:54;;;;;;;7.75;6.95;;;5.80;99.90;;;;;;6244515;28;20021;-89
2021/01/31 10:53:56;;;;;;;7.75;6.95;;;;;;;;;;6244258;28;20039;-92
2021/01/31 10:56:57;;;;;;;6.90;6.20;;;;;;;;;;6260420;28;20119;-91
2021/01/31 10:59:57;;;;;;;6.13;5.35;;;5.40;99.90;;;;;;6259144;28;20056;-88
2021/01/31 11:02:58;;;;;;;6.07;4.72;;;5.90;99.90;;;;;;6243552;28;20814;-88
2021/01/31 11:05:59;;;;;;;5.95;5.35;;;;;;;;;;6244093;28;20024;-92
2021/01/31 11:09:00;;;;;;;5.65;5.13;;;5.40;99.90;;;;;;6259789;28;20103;-88
2021/01/31 11:12:01;;;;;;;6.32;5.72;;;5.40;98.30;;;;;;6259079;28;20025;-88
2021/01/31 11:15:02;;;;;;;7.13;6.25;;;;;;;;;;6244227;28;20421;-92
2021/01/31 11:18:02;;;;;;;5.97;5.38;;;5.40;92.90;;;;;;6260136;28;20033;-89
2021/01/31 11:21:03;;;;;;;5.30;4.80;;;5.50;94.20;;;;;;6243288;28;20098;-88
2021/01/31 11:24:04;;;;;;;5.03;4.53;;;5.50;94.30;;;;;;6244234;28;20033;-91
2021/01/31 11:27:06;;;;;;;6.35;5.13;;;5.70;95.40;;;;;;6243356;28;20039;-89
2021/01/31 11:30:08;;;;;;;4.28;3.88;;;5.40;94.60;;;;;;6242878;28;20386;-84
2021/01/31 11:33:08;;;;;;;4.35;3.95;;;5.40;93.90;;;;;;6239231;28;20046;-88
2021/01/31 12:50:33;;;;;;;5.95;3.10;;;8.60;99.90;;;;;;6353089;27;20370;-84
2021/01/31 12:53:34;;;;;;;3.22;2.92;;;;;;;;;;6322919;28;20035;-86
2021/01/31 12:56:35;;;;;;;3.95;3.60;;;;;;;;;;6306318;28;20028;-89
2021/01/31 12:59:39;;;;;;;4.35;3.95;;;;;;;;;;6305790;28;20065;-90
2021/01/31 13:02:40;;;;;;;7.03;4.28;;;;;;;;;;6305492;28;20024;-89
2021/01/31 13:05:41;;;;;;;4.78;4.28;;;8.10;99.90;;;;;;6297947;28;20062;-89
2021/01/31 13:08:42;;;;;;;7.35;4.20;;;;;;;;;;6304473;28;20040;-84
2021/01/31 13:11:43;;;;;;;5.30;4.40;;;;;;;;;;6321161;28;20015;-86
2021/01/31 13:14:49;;;;;;;4.72;4.32;;;8.00;94.10;;;;;;6321772;28;20099;-89
2021/01/31 13:17:50;;;;;;;5.15;4.40;;;7.70;99.00;;;;;;6304981;28;20035;-86
2021/01/31 13:20:51;;;;;;;5.80;4.95;;;;;;;;;;6304152;28;20046;-83
2021/01/31 13:23:52;;;;;;;6.18;5.63;;;;;;;;;;6321340;28;20081;-84
2021/01/31 13:26:53;;;;;;;6.03;5.28;;;7.20;99.90;;;;;;6320575;28;20117;-86
2021/01/31 13:29:54;;;;;;;6.28;5.68;;;7.30;99.90;;;;;;6303748;28;20093;-86
2021/01/31 13:32:54;;;;;;;6.22;5.63;;;7.40;97.60;;;;;;6304093;28;20708;-85
2021/01/31 13:35:55;;;;;;;6.32;5.72;;;7.40;92.60;;;;;;6303349;28;20027;-86
2021/01/31 13:38:56;;;;;;;6.15;5.55;;;7.50;92.70;;;;;;6304118;28;20134;-82
2021/01/31 13:41:56;;;;;;;7.13;6.07;;;7.40;92.20;;;;;;6303344;28;20024;-84
2021/01/31 13:44:57;;;;;;;7.20;6.55;;;7.30;92.80;;;;;;6321088;28;20028;-84
2021/01/31 13:47:58;;;;;;;8.10;7.30;;;7.20;93.40;;;;;;6303400;28;20055;-87
2021/01/31 13:50:58;;;;;;;7.40;6.70;;;7.30;93.50;;;;;;6303295;28;20039;-85
2021/01/31 13:53:59;;;;;;;7.22;6.55;;;7.20;99.90;;;;;;6320594;28;20085;-87
2021/01/31 13:57:00;;;;;;;7.03;6.32;;;;;;;;;;6303209;28;20569;-86
2021/01/31 14:00:01;;;;;;;8.13;7.30;;;7.00;91.70;;;;;;6313969;28;20028;-85
2021/01/31 14:03:02;;;;;;;8.27;7.47;;;6.90;93.40;;;;;;6286662;28;20039;-86
2021/01/31 14:20:23;;;;;;;9.25;7.18;;;8.00;98.80;;;;;;6322179;27;20845;-77
2021/01/31 14:23:24;;;;;;;11.02;7.57;;;8.00;90.40;;;;;;6296243;28;20090;-83
2021/01/31 14:26:25;;;;;;;14.45;7.50;;;8.40;96.40;;;;;;6296231;28;20032;-86
2021/01/31 14:29:25;;;;;;;8.30;6.72;;;8.20;96.60;;;;;;6295913;28;20028;-84
2021/01/31 14:32:26;;;;;;;9.60;7.05;;;8.50;97.30;;;;;;6277993;28;20024;-79
2021/01/31 14:35:28;;;;;;;9.13;7.35;;;8.00;94.30;;;;;;6295610;28;20029;-82
2021/01/31 14:38:29;;;;;;;8.38;7.30;;;8.10;95.50;;;;;;6290840;28;20406;-80
2021/01/31 14:41:29;;;;;;;9.75;8.60;;;8.00;94.00;;;;;;6294695;28;20040;-79
2021/01/31 14:44:30;;;;;;;12.63;8.93;;;7.90;93.60;;;;;;6295832;28;20040;-82
2021/01/31 14:47:31;;;;;;;8.65;7.45;;;7.90;94.50;;;;;;6295703;28;20025;-81
2021/01/31 14:50:31;;;;;;;7.50;6.80;;;8.00;94.80;;;;;;6294989;28;20030;-77
2021/01/31 14:53:32;;;;;;;9.73;7.93;;;7.80;94.80;;;;;;6295436;28;20028;-79
2021/01/31 14:56:32;;;;;;;7.68;6.82;;;7.80;91.90;;;;;;6295125;28;20036;-81
2021/01/31 14:59:35;;;;;;;7.65;6.85;;;7.80;91.50;;;;;;6312747;28;20080;-87
2021/01/31 15:02:36;;;;;;;9.15;7.18;;;7.70;91.00;;;;;;6295256;28;20547;-82
2021/01/31 15:05:38;;;;;;;8.18;7.38;;;7.60;92.70;;;;;;6278905;28;20028;-85
2021/01/31 15:08:48;;;;;;;7.85;6.80;;;7.50;90.70;;;;;;6291944;28;20031;-80
2021/01/31 15:11:48;;;;;;;7.35;6.65;;;7.40;92.20;;;;;;6271298;28;20104;-86
2021/01/31 15:14:49;;;;;;;8.13;7.32;;;7.80;94.10;;;;;;6253533;28;20029;-86
2021/01/31 15:17:49;;;;;;;6.82;6.15;;;7.40;92.60;;;;;;6253029;28;20080;-84
2021/01/31 15:20:50;;;;;;;7.35;6.65;;;7.30;92.40;;;;;;6270307;28;20111;-86
2021/01/31 15:23:51;;;;;;;7.95;7.10;;;7.20;92.60;;;;;;6253930;28;20706;-88
2021/01/31 15:26:51;;;;;;;7.80;7.00;;;7.00;93.40;;;;;;6254048;28;20028;-87
2021/01/31 15:29:52;;;;;;;7.75;6.97;;;7.10;94.50;;;;;;6247531;28;20033;-85
2021/01/31 15:32:53;;;;;;;7.85;6.78;;;7.10;93.60;;;;;;6253196;28;20040;-85
2021/01/31 15:35:53;;;;;;;8.27;7.25;;;7.00;93.80;;;;;;6236797;28;20029;-86
2021/01/31 15:38:54;;;;;;;7.78;7.07;;;6.90;94.20;;;;;;6252260;28;20037;-85
2021/01/31 15:41:55;;;;;;;8.00;7.20;;;6.90;94.20;;;;;;6253012;28;20052;-90
2021/01/31 15:44:56;;;;;;;7.90;7.20;;;6.80;94.90;;;;;;6237627;28;20467;-87
2021/01/31 15:47:56;;;;;;;8.38;7.47;;;6.70;94.90;;;;;;6252671;28;20029;-83
2021/01/31 15:50:57;;;;;;;11.38;9.45;;;6.80;95.60;;;;;;6253320;28;20494;-83
2021/01/31 15:53:58;;;;;;;11.90;10.70;;;6.70;94.60;;;;;;6252757;28;20037;-85
2021/01/31 15:56:59;;;;;;;11.20;10.02;;;6.60;94.80;;;;;;6252862;28;20470;-84
2021/01/31 16:00:00;;;;;;;10.20;8.57;;;6.60;94.80;;;;;;6236464;28;20049;-84
2021/01/31 16:03:02;;;;;;;10.02;8.68;;;6.60;94.90;;;;;;6252493;28;20500;-82
2021/01/31 16:06:03;;;;;;;10.75;9.75;;;6.40;94.80;;;;;;6236438;28;20383;-83
2021/01/31 16:09:04;;;;;;;11.02;9.27;;;6.40;95.10;;;;;;6235910;28;20033;-83
2021/01/31 16:12:05;;;;;;;9.65;8.63;;;6.30;95.00;;;;;;6236288;28;20029;-82
2021/01/31 16:15:09;;;;;;;9.80;8.75;;;6.30;95.30;;;;;;6236496;28;20058;-83
2021/01/31 16:18:10;;;;;;;9.65;8.73;;;6.30;95.40;;;;;;6252774;28;20511;-89
2021/01/31 16:21:11;;;;;;;10.00;9.00;;;;;;;;;;6237362;28;20074;-88
2021/01/31 16:24:12;;;;;;;9.70;8.70;;;6.30;94.30;;;;;;6253835;28;20024;-88
2021/01/31 16:27:13;;;;;;;11.05;9.32;;;;;;;;;;6237428;28;20493;-88
2021/01/31 16:30:19;;;;;;;10.35;9.20;;;6.20;94.70;;;;;;6253005;28;20028;-88
2021/01/31 16:33:20;;;;;;;10.32;9.25;;;7.10;95.50;;;;;;6221131;28;20033;-89
2021/01/31 16:36:21;;;;;;;9.65;8.65;;;6.10;96.80;;;;;;6236880;28;20666;-90
2021/01/31 16:39:21;;;;;;;10.90;9.82;;;6.10;96.40;;;;;;6236529;28;20122;-87
2021/01/31 16:42:22;;;;;;;10.90;9.82;;;6.10;96.40;;;;;;6235561;28;20030;-84
2021/01/31 16:45:28;;;;;;;10.82;9.73;;;6.10;96.20;;;;;;6253677;28;20025;-85
2021/01/31 16:48:31;;;;;;;12.60;11.30;;;6.60;97.30;;;;;;6235752;28;20037;-87
2021/01/31 16:51:32;;;;;;;12.73;10.75;;;6.20;96.30;;;;;;6236638;28;20478;-86
2021/01/31 16:54:33;;;;;;;11.60;10.40;;;6.30;96.90;;;;;;6253615;28;20029;-79
2021/01/31 16:57:34;;;;;;;13.02;11.73;;;;;;;;;;6253695;28;20378;-86
2021/01/31 17:00:35;;;;;;;12.85;11.40;;;6.50;95.10;;;;;;6243509;28;20413;-86
2021/01/31 17:03:39;;;;;;;17.48;14.50;;;;;;;;;;6236915;28;20070;-90
2021/01/31 17:06:39;;;;;;;22.95;18.15;;;6.60;96.30;;;;;;6254593;28;20150;-87
2021/01/31 17:09:40;;;;;;;21.83;17.17;;;6.90;97.60;;;;;;6236366;28;20036;-92
2021/01/31 17:12:41;;;;;;;19.27;15.65;;;6.50;97.70;;;;;;6236264;28;20056;-82
2021/01/31 17:15:42;;;;;;;21.23;15.10;;;6.40;96.00;;;;;;6250916;28;20029;-82
2021/01/31 17:18:42;;;;;;;16.30;14.02;;;6.40;97.30;;;;;;6251445;28;20406;-86
2021/01/31 17:21:52;;;;;;;16.45;13.48;;;6.70;98.10;;;;;;6246671;28;20128;-89
2021/01/31 17:24:54;;;;;;;14.77;13.10;;;6.80;96.80;;;;;;6252646;28;20084;-89
2021/01/31 17:27:58;;;;;;;14.57;13.02;;;6.40;96.70;;;;;;6241290;28;20083;-89
2021/01/31 17:30:59;;;;;;;15.13;12.07;;;6.50;96.90;;;;;;6264549;28;20025;-89
2021/01/31 17:34:00;;;;;;;15.05;13.15;;;6.40;97.00;;;;;;6235614;28;20509;-86
2021/01/31 17:37:00;;;;;;;16.75;14.02;;;6.50;96.60;;;;;;6234739;28;20155;-89
2021/01/31 17:40:01;;;;;;;14.05;12.57;;;6.40;96.90;;;;;;6235378;28;20040;-86
2021/01/31 17:43:02;;;;;;;14.80;12.23;;;6.10;96.90;;;;;;6234942;28;20040;-87
2021/01/31 17:46:03;;;;;;;14.10;12.60;;;;;;;;;;6235351;28;20059;-86
2021/01/31 17:49:04;;;;;;;15.88;12.55;;;6.10;95.40;;;;;;6251091;28;20368;-88
2021/01/31 17:52:05;;;;;;;14.02;12.60;;;6.40;97.00;;;;;;6234482;28;20025;-87
2021/01/31 17:55:06;;;;;;;14.48;12.73;;;6.00;96.80;;;;;;6234120;28;20029;-86
2021/01/31 17:58:07;;;;;;;14.82;13.25;;;5.90;96.80;;;;;;6234278;28;20041;-85
2021/01/31 18:01:09;;;;;;;14.15;12.55;;;;;;;;;;6233421;28;20033;-88
2021/01/31 18:04:09;;;;;;;14.63;13.03;;;6.10;95.80;;;;;;6250221;28;20025;-84